Tiempo atmosférico en la estación meteorológica de Ponferrada, León (534 m.)



Fecha
DESCASC
Temp. máxima en grados centígrados (hora)
DESCASC
Temp. mínima en grados centígrados (hora)
DESCASC
Temp. media en grados centígrados
DESCASC
Racha de viento máxima en m/sg (hora)
DESCASC
Velocidad máxima media en intervalos de 10 minutos(hora)
DESCASC
Precipitaciones diarias en mm
DESCASC
Precipitaciones de 00:00 a 06:00 en mm
DESCASC
Precipitaciones de 06:00 a 12:00 en mm
DESCASC
Precipitaciones de 12:00 a 18:00 en mm
DESCASC
Precipitaciones de 18:00 a 24:00 en mm
DESCASC
22-11-2020 16.4 (16:50) 1 (08:40) 8.7 2.5 (14:50) 1.39 (12:40) 0 0 0 0 0
21-11-2020 17.3 (17:00) 2.3 (08:40) 9.8 2.78 (13:00) 1.94 (13:10) 0 0 0 0 0
20-11-2020 15.6 (16:40) 4.5 (08:30) 10.1 2.78 (12:50) 1.67 (08:10) 0 0 0 0 0
19-11-2020 19.5 (16:50) 6.6 (00:00) 13 3.33 (09:20) 2.22 (09:20) -- 0 0 -- 0
18-11-2020 18.8 (16:00) 5.5 (00:00) 12.1 3.06 (22:30) 1.94 (22:30) 0 0 0 0 0
17-11-2020 16.1 (17:00) 3.4 (00:00) 9.8 -- (--) -- (--) 0 0 0 0 0
16-11-2020 -- (--) -- (--) -- -- (--) -- (--) -- 0 -- 0 --
15-11-2020 17.1 (12:00) 11.1 (00:00) 14.1 7.78 (14:30) 4.17 (12:10) -- 0 0.2 -- 0
14-11-2020 13.7 (16:20) 3.4 (00:00) 8.5 3.33 (16:40) 2.22 (16:40) 0 0 0 0 0
13-11-2020 19 (16:20) 6.1 (00:00) 12.5 8.06 (18:30) 5 (18:20) 0 0 0 0 0
12-11-2020 18.9 (15:40) 6.4 (00:00) 12.6 3.61 (14:00) 1.67 (14:00) 0 0 0 0 0
11-11-2020 11.9 (16:40) 2.7 (00:00) 7.3 2.78 (19:20) 1.39 (11:20) 0 0 0 0 0
10-11-2020 12.9 (16:50) 5.1 (00:00) 9 3.33 (15:20) 1.67 (15:20) 0 0 0 0 0
09-11-2020 17.3 (16:00) 9 (00:00) 13.1 5 (15:30) 2.78 (15:30) 1 1 0 0 0
08-11-2020 17 (14:40) 10.4 (00:00) 13.7 6.11 (09:40) 3.33 (19:10) 0.4 0.2 0 0.2 0
07-11-2020 17.2 (12:50) 10.1 (00:00) 13.7 6.67 (00:20) 3.33 (00:20) 0.6 0 0 0 0.6
06-11-2020 17.3 (20:40) 12.5 (00:00) 14.9 13.89 (16:10) 7.78 (09:30) 0.4 0 0 0.4 0
05-11-2020 14.7 (15:30) 8 (00:00) 11.3 12.22 (20:50) 6.94 (23:59) 0 0 0 0 0
04-11-2020 12.1 (16:10) 0.9 (00:00) 6.5 10.56 (22:30) 5 (22:30) 0 0 0 0 0
03-11-2020 14.6 (15:50) 4.1 (00:00) 9.4 6.39 (00:10) 2.78 (00:10) 0 0 0 0 0
02-11-2020 21.2 (14:00) 10.6 (00:00) 15.9 8.33 (14:40) 3.89 (14:40) 2.2 0 0 1.6 0.6
01-11-2020 18.5 (16:00) 12.9 (00:00) 15.7 3.33 (01:50) 1.67 (04:10) 0 0 0 0 0
31-10-2020 20 (17:10) 5.5 (00:00) 12.8 4.44 (13:40) 2.5 (13:30) 0 0 0 0 0
30-10-2020 17.9 (17:10) 3.8 (00:00) 10.8 2.78 (14:20) 1.67 (13:20) 0 0 0 0 0
29-10-2020 17.1 (17:20) 4.1 (00:00) 10.6 3.06 (12:10) 1.67 (13:20) 0 0 0 0 0
28-10-2020 16.3 (15:50) 7.9 (00:00) 12.1 6.11 (16:30) 3.61 (16:30) 0.6 0.4 0.2 0 0
27-10-2020 13.2 (14:00) 8.7 (00:00) 10.9 5 (14:10) 3.06 (14:20) 1.4 0 0 0.6 0.8
26-10-2020 12.7 (14:30) 5.2 (00:00) 8.9 8.61 (12:20) 3.89 (12:20) 0.4 0 0 0.2 0.2

Gráficas

Temp. máximas Temp. mínimas Temp. medias Precipitaciones Rachas de viento máximas Velocidades máximas media en intervalos de 10 minutos

Datos horarios

Fecha y hora oficial Temperatura (ºC) Velocidad del viento (km/h) Dirección del viento Racha (km/h) Dirección de racha Precipitación (mm) Presión (hPa) Tendencia (hPa) Humedad (%)
2020-11-24 23:00:00 7.7 2 Norte 6 Sudeste 0 953.2 -1.4 85
2020-11-24 22:00:00 8.1 3 Sur 8 Sur 0 953.5 -1.1 82
2020-11-24 21:00:00 8.2 3 Sur -- -- -- 954.2 -0.7 84
2020-11-24 20:00:00 8.2 3 Nordeste 6 Noroeste 0 954.6 -- 83
2020-11-24 19:00:00 8.6 3 Noroeste 8 Noroeste 0 954.6 -- 82
2020-11-24 18:00:00 10 3 Noroeste 6 Este 0 954.9 -- 77
2020-11-24 17:00:00 12.5 2 Sudoeste 5 Nordeste 0 955.3 -- 65
2020-11-24 16:00:00 10.2 3 Noroeste 7 Noroeste 0 955.8 -- 74
2020-11-24 15:00:00 9.6 5 Sudoeste 9 Oeste 0 956.5 -- 76
2020-11-24 14:00:00 8.6 5 Oeste 9 Noroeste 0 957.4 -- 80
2020-11-24 13:00:00 7.1 5 Noroeste 9 Oeste 0 958.8 -- 82
2020-11-24 12:00:00 4.4 4 Oeste -- -- -- 960 -- 93
2020-11-24 11:00:00 3.1 0 Calma 5 Noroeste 0 960.4 -- 97
2020-11-24 10:00:00 2.2 2 Norte 5 Norte 0 960.6 -- 96
2020-11-24 09:00:00 1.8 0 Calma 3 Oeste 0 960.3 -- 99
2020-11-24 08:00:00 1.4 0 Calma 4 Noroeste 0 960.2 -- 97
2020-11-24 07:00:00 1.4 2 Noroeste 3 Norte 0 960.2 -- 96
2020-11-24 06:00:00 1.6 0 Calma 3 Este 0 960.1 -- 95
2020-11-24 05:00:00 2.2 2 Sudeste -- -- -- 960.3 -- 95
2020-11-24 04:00:00 2.8 0 Calma 4 Este 0 960.8 -- 94
2020-11-24 03:00:00 3.5 2 Este 3 Este 0 961.2 -- 93
2020-11-24 02:00:00 4.2 0 Calma 5 Sur 0 961.5 -- 96
2020-11-24 01:00:00 4.1 0 Calma 3 Nordeste 0 962.1 -- 93
2020-11-24 00:00:00 4.5 0 Calma 4 Este 0 962.3 -- 92
2020-11-23 23:00:00 5 0 Calma 5 Sur 0 962.6 -- 91
2020-11-23 22:00:00 5.5 0 Calma 3 Sudoeste 0 962.8 -- 88
2020-11-23 21:00:00 6.5 0 Calma 4 Este 0 962.9 -- 86
2020-11-23 20:00:00 7.6 2 Sudeste 5 Noroeste 0 962.9 -- 81
2020-11-23 19:00:00 9.1 0 Calma 4 Este 0 962.7 -- 76
2020-11-23 18:00:00 11.5 0 Calma 4 Norte 0 962.5 -- 67
2020-11-23 17:00:00 14 0 Calma 5 Noroeste 0 962.4 -- 55
2020-11-23 16:00:00 13.8 4 Oeste 7 Oeste 0 962.6 -- 56
2020-11-23 15:00:00 12.8 2 Sudoeste 8 Noroeste 0 963.3 -- 57
2020-11-23 14:00:00 11.4 4 Noroeste 9 Oeste 0 964.1 -- 63
2020-11-23 13:00:00 9.7 4 Sudoeste 9 Sudoeste 0 965.2 -- 68
2020-11-23 12:00:00 6.8 4 Oeste 6 Oeste 0 966.3 -- 80
2020-11-23 11:00:00 5.4 2 Sudoeste 5 Noroeste 0 966.8 -- 82
2020-11-23 10:00:00 3.9 2 Noroeste 5 Oeste 0 966.7 -- 86
2020-11-23 09:00:00 0.8 2 Este 4 Sudoeste 0 966.4 -- 95
2020-11-23 08:00:00 1.5 2 Noroeste 8 Noroeste 0 966 -- 96
2020-11-23 07:00:00 1.1 3 Este 4 Este 0 965.8 -- 94
2020-11-23 06:00:00 1.5 3 Este 3 Sudeste 0 965.7 -- 94
2020-11-23 05:00:00 1.8 3 Este 4 Este 0 965.7 -- 93
2020-11-23 04:00:00 2.5 3 Sudeste 5 Noroeste 0 966 -- 91
2020-11-23 03:00:00 2.5 0 Calma 3 Sudeste 0 965.8 -- 92
2020-11-23 02:00:00 3 3 Este 4 Noroeste 0 965.9 -- 91
2020-11-23 01:00:00 3.7 0 Calma 4 Sur 0 966 -- 90
2020-11-23 00:00:00 4.2 0 Calma 3 Este 0 966 -- 87
2020-11-22 23:00:00 5 2 Este 4 Noroeste 0 965.8 -- 84
2020-11-22 22:00:00 5.8 2 Este 5 Norte 0 965.6 -- 82
2020-11-22 21:00:00 6.6 3 Sur 6 Sur 0 965.2 -- 82
2020-11-22 20:00:00 8 0 Calma 3 Norte 0 964.9 -- 75
2020-11-22 19:00:00 9.7 2 Sudeste 5 Este 0 964.4 -- 70
2020-11-22 18:00:00 13.2 2 Este 5 Oeste 0 963.7 -- 60
2020-11-22 17:00:00 16.2 3 Oeste 7 Oeste 0 963.5 -- 43
2020-11-22 16:00:00 15.9 3 Noroeste 8 Noroeste 0 963.5 -- 45
2020-11-22 15:00:00 14.6 4 Oeste 9 Noroeste 0 963.9 -- 48
2020-11-22 14:00:00 12.9 2 Sudoeste 8 Sudoeste 0 964.7 -- 56
2020-11-22 13:00:00 10.2 4 Oeste 8 Oeste 0 965.6 -- 65
2020-11-22 12:00:00 8.1 3 Noroeste 8 Noroeste 0 966.3 -- 75
2020-11-22 11:00:00 6.4 3 Noroeste 6 Oeste 0 966.7 -- 81
2020-11-22 10:00:00 4.5 0 Calma 4 Sur 0 966.7 -- 89
2020-11-22 09:00:00 1.1 0 Calma 3 Nordeste 0 966.5 -- 96
2020-11-22 08:00:00 1.4 0 Calma 3 Noroeste 0 965.9 -- 94
2020-11-22 07:00:00 1.6 3 Este 4 Este 0 965.9 -- 96
2020-11-22 06:00:00 2 0 Calma 3 Sudeste 0 965.4 -- 95
2020-11-22 05:00:00 2.3 3 Este 4 Este 0 965 -- 95
2020-11-22 04:00:00 2.8 0 Calma 3 Sudeste 0 964.7 -- 95
2020-11-22 03:00:00 3.1 0 Calma 4 Este 0 964.6 -- 94
2020-11-22 02:00:00 3.7 2 Nordeste 4 Oeste 0 964.5 -- 92
2020-11-22 01:00:00 4.6 3 Noroeste 5 Noroeste 0 964.5 -- 93
2020-11-22 00:00:00 4.8 2 Este 4 Sur 0 964.4 -- 90
2020-11-21 23:00:00 5.3 0 Calma 3 Sudeste 0 964.1 -- 89
2020-11-21 22:00:00 6.2 0 Calma 5 Sudoeste 0 963.9 -- 87
2020-11-21 21:00:00 7 0 Calma 6 Oeste 0 963.7 -- 84
2020-11-21 20:00:00 8.3 2 Este 3 Este 0 963.4 -- 79
2020-11-21 19:00:00 10.4 2 Sudeste 5 Este 0 963 -- 73
2020-11-21 18:00:00 14.2 0 Calma 5 Oeste 0 962.4 -- 62
2020-11-21 17:00:00 17.3 0 Calma 6 Oeste 0 962.3 -- 46
2020-11-21 16:00:00 16.3 4 Oeste 9 Oeste 0 962.5 -- 51
2020-11-21 15:00:00 15.5 3 Oeste 8 Oeste 0 963.1 -- 52
2020-11-21 14:00:00 12.5 3 Oeste 10 Sudoeste 0 964.3 -- 66
2020-11-21 13:00:00 10.5 6 Oeste 10 Oeste 0 965.3 -- 77
2020-11-21 12:00:00 7.6 4 Noroeste 7 Oeste 0 966.3 -- 88
2020-11-21 11:00:00 5 3 Norte 8 Norte 0 966.7 -- 94
2020-11-21 10:00:00 4.2 3 Oeste 5 Oeste 0 966.8 -- 97
2020-11-21 09:00:00 2.4 0 Calma 5 Oeste 0 966.6 -- 96
2020-11-21 08:00:00 2.9 3 Noroeste 5 Noroeste 0 966.3 -- 97
2020-11-21 07:00:00 3.3 0 Calma 5 Oeste 0 966.1 -- 96
2020-11-21 06:00:00 4 3 Noroeste 4 Norte 0 965.9 -- 96
2020-11-21 05:00:00 4 0 Calma 5 Norte 0 965.9 -- 95
2020-11-21 04:00:00 4.2 2 Este 4 Sudeste 0 966.3 -- 95
2020-11-21 03:00:00 4.7 0 Calma 6 Noroeste 0 966.2 -- 93
2020-11-21 02:00:00 5 2 Sur 5 Este 0 966.5 -- 95
2020-11-21 01:00:00 5.4 0 Calma 4 Este 0 967 -- 92
2020-11-21 00:00:00 6 2 Este 6 Este 0 967.1 -- 91
2020-11-20 23:00:00 6.8 2 Noroeste 5 Norte 0 967.5 -- 88
2020-11-20 22:00:00 7.2 2 Este 7 Sudeste 0 967.4 -- 86
2020-11-20 21:00:00 8.5 4 Sudeste 10 Sur 0 967.8 -- 83
2020-11-20 20:00:00 9 2 Sur 4 Este 0 967.6 -- 84
2020-11-20 19:00:00 10.9 3 Sudeste 5 Este 0 967.3 -- 78
2020-11-20 18:00:00 13.8 0 Calma 5 Noroeste 0 967.1 -- 67
2020-11-20 17:00:00 15.6 0 Calma 6 Oeste 0 966.8 -- 61
2020-11-20 16:00:00 14.9 4 Oeste 9 Sudoeste 0 967.2 -- 63
2020-11-20 15:00:00 14.4 3 Sudoeste 9 Sudoeste 0 967.6 -- 65
2020-11-20 14:00:00 11.9 4 Noroeste 10 Oeste 0 968.9 -- 75
2020-11-20 13:00:00 10 5 Sur 10 Oeste 0 969.9 -- 82
2020-11-20 12:00:00 7.7 3 Oeste 8 Noroeste 0 971 -- 92
2020-11-20 11:00:00 6.2 2 Noroeste 6 Noroeste 0 971 -- 95
2020-11-20 10:00:00 5.4 4 Noroeste 7 Noroeste 0 971.3 -- 93
2020-11-20 09:00:00 4.8 2 Noroeste 9 Norte 0 971.4 -- 93
2020-11-20 08:00:00 5 6 Noroeste 8 Noroeste 0 971 -- 95
2020-11-20 07:00:00 5.3 4 Sudeste 5 Sudeste 0 971 -- 95
2020-11-20 06:00:00 5.6 0 Calma 5 Oeste 0 971 -- 94
2020-11-20 05:00:00 5.9 2 Noroeste 4 Este 0 971.2 -- 97
2020-11-20 04:00:00 5.7 0 Calma 4 Sudeste 0 971.5 -- 96
2020-11-20 03:00:00 5.9 3 Este 4 Este 0 971.4 -- 96
2020-11-20 02:00:00 6.6 0 Calma 6 Norte 0 971.9 -- 94
2020-11-20 01:00:00 7.1 3 Sudeste 6 Este 0 972.1 -- 94
2020-11-20 00:00:00 7.7 3 Este 5 Noroeste 0 972 -- 92
2020-11-19 23:00:00 8.5 0 Calma 6 Noroeste 0 971.8 -- 91
2020-11-19 22:00:00 9.5 3 Norte 8 Sudeste 0 971.4 -- 91
2020-11-19 21:00:00 10.4 3 Sudeste 6 Este 0 971.1 -- 86
2020-11-19 20:00:00 12 5 Sudeste 8 Sudeste 0 971 -- 83
2020-11-19 19:00:00 13.8 4 Sur 11 Sudoeste 0 970.6 -- 79
2020-11-19 18:00:00 16.8 2 Sur 6 Noroeste 0 970 -- 66
2020-11-19 17:00:00 19.2 5 Noroeste 8 Sudeste 0 969.7 -- 58
2020-11-19 16:00:00 18.4 4 Sudeste 8 Sudeste 0 969.6 -- 63
2020-11-19 15:00:00 17.1 4 Oeste 9 Sudoeste 0 970.3 -- 67
2020-11-19 14:00:00 15.1 5 Noroeste -- -- -- 970.8 -- 77
2020-11-19 13:00:00 -- -- -- -- -- -- -- -- --
2020-11-19 12:00:00 11.7 6 Sur 10 Sur 0 972.6 -- 87
2020-11-19 11:00:00 9.6 5 Oeste 8 Oeste 0 972.4 -- 94
2020-11-19 10:00:00 8 2 Este 12 Noroeste 0 972.5 -- 95
2020-11-19 09:00:00 7.1 3 Noroeste 12 Noroeste 0 971.9 -- 96
2020-11-19 08:00:00 6.6 5 Sudeste 11 Sudeste 0 971.5 -- 97
2020-11-19 07:00:00 6.8 0 Calma 4 Sudeste 0 970.1 -- 97
2020-11-19 06:00:00 7.4 2 Oeste 5 Noroeste 0 969.7 -- 94
2020-11-19 05:00:00 7.8 2 Sur 5 Sudeste 0 969.3 -- 96
2020-11-19 04:00:00 8.1 0 Calma 5 Noroeste 0 968.9 -- 95
2020-11-19 03:00:00 7.9 2 Sudeste 4 Sudeste 0 968.3 -- 94
2020-11-19 02:00:00 8.7 2 Este 5 Este 0 968.1 -- 92
2020-11-19 01:00:00 9.5 2 Sudeste 8 Norte 0 968 -- 92
2020-11-19 00:00:00 10.5 4 Sudeste 10 Sur 0 967.7 -- 88
2020-11-18 23:00:00 11.8 3 Norte 11 Sudeste 0 967.8 -- 87
2020-11-18 22:00:00 11.8 4 Sudeste 7 Noroeste 0 967.2 -- 87
2020-11-18 21:00:00 12.9 3 Sudeste 5 Sudeste 0 966.1 -- 86
2020-11-18 20:00:00 13.4 2 Norte 7 Noroeste 0 965.2 -- 84
2020-11-18 19:00:00 14.2 2 Oeste 5 Este 0 964.4 -- 81
2020-11-18 18:00:00 15.8 0 Calma 6 Este 0 963.7 -- 76
2020-11-18 17:00:00 17.5 3 Oeste 7 Oeste 0 963.2 -- 65
2020-11-18 16:00:00 18.8 4 Oeste 7 Sudoeste 0 963 -- 60
2020-11-18 15:00:00 16.7 4 Sudoeste 8 Noroeste 0 963.1 -- 65
2020-11-18 14:00:00 17 3 Noroeste 9 Oeste 0 963.3 -- 64
2020-11-18 13:00:00 14.7 4 Oeste 9 Oeste 0 964.2 -- 69
2020-11-18 12:00:00 13 3 Oeste 7 Oeste 0 964.7 -- 75
2020-11-18 11:00:00 11.1 4 Oeste 6 Oeste 0 964.7 -- 81
2020-11-18 10:00:00 9.2 0 Calma 4 Sudeste 0 964.6 -- 91
2020-11-18 09:00:00 5.7 0 Calma 4 Norte 0 964 -- 97
2020-11-18 08:00:00 6.2 3 Norte 6 Este 0 963.3 -- 96
2020-11-18 07:00:00 6.5 2 Sudeste 6 Nordeste 0 963 -- 93
2020-11-18 06:00:00 7.6 0 Calma 5 Sudoeste 0 962.6 -- 93
2020-11-18 05:00:00 8 2 Noroeste 6 Noroeste 0 962.7 -- 93
2020-11-18 04:00:00 8.3 3 Sur 5 Noroeste 0 962.6 -- 93
2020-11-18 03:00:00 8.3 3 Oeste 6 Norte 0 962.4 -- 93
2020-11-18 02:00:00 8.3 0 Calma 6 Nordeste 0 962.6 -- 93
2020-11-18 01:00:00 8.3 2 Sudoeste 8 Nordeste 0 962.7 -- 94
2020-11-18 00:00:00 7.4 4 Sudeste 9 Sudeste 0 962.7 -- 97
2020-11-17 23:00:00 7 2 Sudeste 4 Sur 0 962.8 -- 93
2020-11-17 22:00:00 7.8 0 Calma 6 Nordeste 0 962.5 -- 91
2020-11-17 21:00:00 8.2 2 Este 5 Este 0 962.3 -- 89
2020-11-17 20:00:00 9.4 0 Calma 6 Oeste 0 962.2 -- 86
2020-11-17 19:00:00 11 0 Calma 5 Este 0 961.7 -- 80
2020-11-17 18:00:00 14.2 0 Calma 6 Noroeste 0 961.6 -- 70
2020-11-17 17:00:00 16.1 2 Oeste 6 Sudoeste 0 961.5 -- 60
2020-11-17 16:00:00 14.8 3 Noroeste 8 Oeste 0 961.6 -- 63
2020-11-17 15:00:00 13.1 4 Oeste 9 Oeste 0 962 -- 68
2020-11-17 14:00:00 9.9 3 Sudoeste 8 Oeste 0 962.8 -- 83
2020-11-17 13:00:00 6.5 3 Nordeste 9 Noroeste 0 963.9 -- 95
2020-11-17 12:00:00 5.6 2 Norte 6 Nordeste 0 964.9 -- 99
2020-11-17 11:00:00 4.4 2 Noroeste 5 Noroeste 0 965.4 -- 100
2020-11-17 10:00:00 3.7 0 Calma 6 Nordeste 0 965.5 -- 100
2020-11-17 09:00:00 3.5 2 Oeste 5 Oeste 0 965.2 -- 99
2020-11-17 08:00:00 3.6 0 Calma 4 Noroeste 0 964.7 -- 99
2020-11-17 07:00:00 3.7 2 Noroeste -- -- -- 964.7 -- 98
2020-11-17 06:00:00 4 3 Noroeste 5 Noroeste 0 964.6 -- 97
2020-11-17 05:00:00 3.7 0 Calma 5 Noroeste 0 964.5 -- 96
2020-11-17 04:00:00 4.1 2 Sudeste 4 Sudeste 0 964.4 -- 96
2020-11-17 03:00:00 4.6 0 Calma 3 Este 0 964.5 -- 96
2020-11-17 02:00:00 5.1 0 Calma -- -- -- 964.7 -- 95
2020-11-17 01:00:00 5.9 0 Calma 5 Noroeste 0 964.8 -- 93
2020-11-17 00:00:00 6.4 2 Sudeste 4 Este 0 964.6 -- 94
2020-11-16 23:00:00 7.1 0 Calma 4 Este 0 964.4 -- 92
2020-11-16 22:00:00 8.4 3 Noroeste 9 Sur 0 964.2 -- 89
2020-11-16 21:00:00 8.8 3 Sudeste 5 Sudeste 0 963.7 -- 89
2020-11-16 20:00:00 9.8 0 Calma -- -- -- 963.3 -- 84
2020-11-16 19:00:00 11.7 3 Este 5 Sudeste 0 962.8 -- 78
2020-11-16 18:00:00 14.6 0 Calma 6 Oeste 0 962.4 -- 66
2020-11-16 17:00:00 16.6 3 Sudoeste 7 Sur 0 962.4 -- 57
2020-11-16 16:00:00 15.8 4 Oeste 9 Sudoeste 0 962.4 -- 57
2020-11-16 15:00:00 15.5 4 Oeste 10 Noroeste 0 962.3 -- 60
2020-11-16 14:00:00 14.8 3 Sur 9 Sudoeste 0 962.7 -- 66
2020-11-16 13:00:00 12.9 3 Sudoeste 10 Sudoeste 0 963.2 -- 77
2020-11-16 12:00:00 11 3 Sudoeste 7 Sudoeste 0 963.7 -- 82
2020-11-16 11:00:00 9 4 Oeste 8 Sudoeste 0 963.7 -- 90
2020-11-16 10:00:00 8.4 3 Oeste 5 Oeste 0 963 -- 95
2020-11-16 09:00:00 6.8 3 Sudoeste 5 Norte 0 962.4 -- 98
2020-11-16 08:00:00 6.7 2 Este -- -- -- 961.6 -- 96
2020-11-16 07:00:00 7.7 0 Calma 4 Nordeste 0 961.6 -- 95
2020-11-16 06:00:00 8.2 0 Calma 4 Noroeste 0 961.4 -- 95
2020-11-16 05:00:00 9.2 3 Este 4 Este 0 960.7 -- 92
2020-11-16 04:00:00 10.8 0 Calma 4 Norte 0 961.1 -- 93
2020-11-16 03:00:00 10.9 0 Calma 4 Oeste 0 960.8 -- 93
2020-11-16 02:00:00 12.1 3 Noroeste 8 Sudoeste 0 960.1 -- 89
2020-11-16 01:00:00 12.4 3 Oeste 10 Oeste 0 960.1 -- 89
2020-11-16 00:00:00 12.5 5 Oeste 12 Oeste 0 959.8 -- 90
2020-11-15 23:00:00 12.8 6 Noroeste 15 Oeste 0 959.6 -- 88
2020-11-15 22:00:00 12.9 5 Oeste 11 Oeste 0 959 -- 86
2020-11-15 21:00:00 13.3 5 Oeste 10 Noroeste 0 958.4 -- 89
2020-11-15 20:00:00 13.7 4 Noroeste 8 Oeste 0 957.6 -- 86
2020-11-15 19:00:00 14.1 4 Noroeste 14 Noroeste 0 956.5 -- 86
2020-11-15 18:00:00 14.7 5 Noroeste 14 Noroeste 0 956.1 -- 88
2020-11-15 17:00:00 15.5 5 Oeste 18 Oeste 0 955.2 -- 89
2020-11-15 16:00:00 15.5 9 Oeste 22 Sudoeste 0 955 -- 90
2020-11-15 15:00:00 15.2 5 Oeste -- -- -- 954.3 -- 93
2020-11-15 14:00:00 15 5 Sudoeste 14 Oeste 1.8 954.4 -- 95
2020-11-15 13:00:00 15.1 11 Oeste 27 Oeste 1 954.6 -- 92
2020-11-15 12:00:00 17 9 Noroeste 23 Oeste 0 954.2 -- 77
2020-11-15 11:00:00 16.2 6 Noroeste 19 Oeste 0 953.9 -- 79
2020-11-15 10:00:00 14.1 3 Norte 8 Norte 0 953.8 -- 88
2020-11-15 09:00:00 12.5 4 Nordeste 6 Nordeste 0 953.4 -- 96
2020-11-15 08:00:00 11.8 2 Norte 7 Sur 0.2 953.1 -- 95
2020-11-15 07:00:00 11.6 2 Noroeste 7 Sudeste 0 953.1 -- 93
2020-11-15 06:00:00 11.4 2 Sudoeste 5 Nordeste 0 953.2 -- 92
2020-11-15 05:00:00 11.3 0 Calma 7 Oeste 0 953.2 -- 91
2020-11-15 04:00:00 11.1 3 Este 4 Sudeste 0 953.6 -- 91
2020-11-15 03:00:00 11.8 0 Calma 14 Este 0 954 -- 86
2020-11-15 02:00:00 11.6 2 Este 9 Oeste 0 954.7 -- 86
2020-11-15 01:00:00 12.2 4 Oeste 15 Este 0 954.9 -- 84
2020-11-15 00:00:00 11.8 7 Sudeste 12 Sur 0 955.1 -- 86
2020-11-14 23:00:00 11.7 0 Calma 6 Noroeste 0 955.4 -- 86
2020-11-14 22:00:00 11.6 2 Sudeste 8 Sur 0 955.2 -- 85
2020-11-14 21:00:00 11.5 4 Sur 10 Sur 0 955.1 -- 86
2020-11-14 20:00:00 11.9 3 Nordeste 11 Oeste 0 955.5 -- 83
2020-11-14 19:00:00 12.4 3 Sur 8 Sur 0 955 -- 79
2020-11-14 18:00:00 13 5 Noroeste 8 Oeste 0 954.9 -- 75
2020-11-14 17:00:00 13.6 5 Oeste 12 Oeste 0 954.8 -- 73
2020-11-14 16:00:00 13.5 3 Oeste 9 Oeste 0 954.5 -- 72
2020-11-14 15:00:00 12.9 4 Noroeste 10 Noroeste 0 955 -- 72
2020-11-14 14:00:00 13.2 4 Oeste 10 Oeste 0 955.3 -- 72
2020-11-14 13:00:00 10.8 4 Noroeste 9 Sur 0 955.9 -- 78
2020-11-14 12:00:00 10 3 Oeste 8 Oeste 0 956.8 -- 80
2020-11-14 11:00:00 8.3 6 Sudeste 10 Sudeste 0 957 -- 85
2020-11-14 10:00:00 6.1 0 Calma 8 Noroeste 0 957 -- 92
2020-11-14 09:00:00 3.9 3 Noroeste 8 Noroeste 0 956.9 -- 96
2020-11-14 08:00:00 3.7 2 Sudeste 5 Sudeste 0 956.4 -- 95
2020-11-14 07:00:00 4.3 2 Nordeste 8 Norte 0 956.3 -- 96
2020-11-14 06:00:00 4.2 4 Sudeste 5 Este 0 956.1 -- 95
2020-11-14 05:00:00 4.8 2 Oeste 5 Sudeste 0 956 -- 95
2020-11-14 04:00:00 5.1 3 Este 6 Oeste 0 956.4 -- 93
2020-11-14 03:00:00 6.3 0 Calma 7 Sur 0 956.3 -- 91
2020-11-14 02:00:00 6.4 2 Este 5 Nordeste 0 956.8 -- 92
2020-11-14 01:00:00 6.9 0 Calma 6 Este 0 957 -- 91
2020-11-14 00:00:00 7.6 3 Sur 5 Sur 0 957.3 -- 88
2020-11-13 23:00:00 8.4 3 Este 5 Sudoeste 0 957.1 -- 84
2020-11-13 22:00:00 10.1 3 Sudeste 21 Este 0 956.9 -- 80
2020-11-13 21:00:00 11.6 11 Este 22 Sudeste 0 956.8 -- 76
2020-11-13 20:00:00 11.8 12 Este 26 Este 0 956.6 -- 75
2020-11-13 19:00:00 12.5 16 Este 29 Este 0 956 -- 71
2020-11-13 18:00:00 14.2 17 Este 27 Este 0 955.8 -- 65
2020-11-13 17:00:00 17.3 12 Este 21 Este 0 955.6 -- 53
2020-11-13 16:00:00 18.6 3 Sudoeste 8 Oeste 0 955.6 -- 48
2020-11-13 15:00:00 17.2 3 Oeste 12 Noroeste 0 956.2 -- 58
2020-11-13 14:00:00 16.1 4 Sudoeste 9 Sudoeste 0 956.6 -- 62
2020-11-13 13:00:00 13.6 4 Oeste 9 Oeste 0 957.4 -- 70
2020-11-13 12:00:00 10.7 6 Oeste 10 Oeste 0 958.2 -- 82
2020-11-13 11:00:00 8.4 5 Noroeste 8 Noroeste 0 958.5 -- 93
2020-11-13 10:00:00 6.9 4 Sur 5 Sudeste 0 958.6 -- 98
2020-11-13 09:00:00 6.6 0 Calma 4 Sudeste 0 958.2 -- 95
2020-11-13 08:00:00 6.6 2 Noroeste 4 Oeste 0 957.8 -- 96
2020-11-13 07:00:00 6.1 0 Calma 4 Sur 0 957.9 -- 96
2020-11-13 06:00:00 6.3 0 Calma 4 Sudoeste 0 957.8 -- 94
2020-11-13 05:00:00 6.8 3 Este 4 Este 0 957.7 -- 93
2020-11-13 04:00:00 7.6 3 Este 4 Este 0 957.7 -- 91
2020-11-13 03:00:00 8.4 2 Noroeste 6 Este 0 957.5 -- 91
2020-11-13 02:00:00 9.2 3 Noroeste 6 Este 0 957.6 -- 90
2020-11-13 01:00:00 8.9 0 Calma 6 Sudeste 0 957.9 -- 89
2020-11-13 00:00:00 10.1 2 Noroeste 5 Sudoeste 0 958.1 -- 85
2020-11-12 23:00:00 11.3 4 Sudoeste 9 Sudoeste 0 957.8 -- 81
2020-11-12 22:00:00 11.7 4 Sur 8 Sur 0 957.8 -- 80
2020-11-12 21:00:00 11.8 0 Calma 7 Sur 0 957.4 -- 79
2020-11-12 20:00:00 12.2 3 Sur 8 Este 0 957.4 -- 78
2020-11-12 19:00:00 13.7 4 Sudeste 8 Sudeste 0 957 -- 73
2020-11-12 18:00:00 15.3 4 Este 6 Este 0 956.7 -- 67
2020-11-12 17:00:00 17.8 2 Sudeste 6 Sudeste 0 956.7 -- 55
2020-11-12 16:00:00 18.4 2 Sur 9 Oeste 0 956.8 -- 53
2020-11-12 15:00:00 18.5 4 Sur 9 Este 0 957.1 -- 52
2020-11-12 14:00:00 17.1 6 Nordeste 13 Nordeste 0 958.1 -- 57
2020-11-12 13:00:00 15.6 4 Noroeste 9 Oeste 0 959.2 -- 63
2020-11-12 12:00:00 14 4 Sudoeste 8 Oeste 0 960.4 -- 71
2020-11-12 11:00:00 12.6 3 Sudoeste 6 Sudoeste 0 960.8 -- 75
2020-11-12 10:00:00 9.9 3 Sur 5 Sur 0 960.9 -- 84
2020-11-12 09:00:00 6.9 0 Calma 3 Sudeste 0 960.5 -- 96
2020-11-12 08:00:00 7 3 Sudeste 4 Sudeste 0 960.2 -- 94
2020-11-12 07:00:00 8.2 0 Calma 4 Noroeste 0 960.1 -- 94
2020-11-12 06:00:00 8.4 2 Este 5 Sur 0 960 -- 93
2020-11-12 05:00:00 8.9 2 Sudeste 3 Sudeste 0 960 -- 93
2020-11-12 04:00:00 9.2 0 Calma 4 Este 0 960.2 -- 92
2020-11-12 03:00:00 9.8 0 Calma 5 Oeste 0 960.5 -- 91
2020-11-12 02:00:00 10 3 Noroeste 5 Noroeste 0 960.7 -- 90
2020-11-12 01:00:00 10 2 Este 3 Sudeste 0 960.9 -- 90
2020-11-12 00:00:00 10.1 0 Calma 4 Oeste 0 961 -- 89
2020-11-11 23:00:00 10 2 Este 4 Este 0 960.9 -- 90
2020-11-11 22:00:00 10 2 Nordeste 4 Nordeste 0 960.8 -- 88
2020-11-11 21:00:00 10.1 3 Este 5 Este 0 960.5 -- 88
2020-11-11 20:00:00 10.2 0 Calma 10 Nordeste 0 960.3 -- 86
2020-11-11 19:00:00 10.5 0 Calma 5 Oeste 0 959.7 -- 84
2020-11-11 18:00:00 11.4 3 Oeste 5 Oeste 0 959.6 -- 79
2020-11-11 17:00:00 11.8 2 Noroeste 5 Norte 0 959.6 -- 77
2020-11-11 16:00:00 11.5 2 Sudeste 5 Oeste 0 959.7 -- 76
2020-11-11 15:00:00 11.2 0 Calma 5 Noroeste 0 960 -- 76
2020-11-11 14:00:00 10.4 2 Noroeste 8 Noroeste 0 960.4 -- 77
2020-11-11 13:00:00 9.9 4 Noroeste 8 Oeste 0 961.1 -- 81
2020-11-11 12:00:00 7.6 2 Sudeste 9 Oeste 0 961.9 -- 88
2020-11-11 11:00:00 5.3 3 Noroeste 6 Noroeste 0 961.9 -- 96
2020-11-11 10:00:00 4.2 4 Noroeste 8 Noroeste 0 961.9 -- 96
2020-11-11 09:00:00 3.1 3 Oeste 8 Noroeste 0 962.1 -- 99
2020-11-11 08:00:00 3.1 3 Noroeste 4 Noroeste 0 961.9 -- 96
2020-11-11 07:00:00 3.6 4 Noroeste 6 Noroeste 0 962.1 -- 97
2020-11-11 06:00:00 3.9 2 Sur 4 Sur 0 962.3 -- 96
2020-11-11 05:00:00 4.1 0 Calma 5 Sudeste 0 962.4 -- 96
2020-11-11 04:00:00 4.5 2 Sudeste 5 Noroeste 0 963.3 -- 95
2020-11-11 03:00:00 4.8 2 Sur 5 Sudeste 0 963.5 -- 97
2020-11-11 02:00:00 4.8 0 Calma 5 Oeste 0 963.9 -- 97
2020-11-11 01:00:00 4.7 2 Norte 5 Oeste 0 964.2 -- 96
2020-11-11 00:00:00 5.1 3 Este 4 Sudeste 0 964.6 -- 95
2020-11-10 23:00:00 5.6 4 Sudeste 6 Este 0 964.6 -- 94
2020-11-10 22:00:00 6.5 4 Sudeste 9 Este 0 964.5 -- 91
2020-11-10 21:00:00 7.3 2 Este 6 Este 0 964.3 -- 90
2020-11-10 20:00:00 8.4 3 Sudoeste 5 Sudoeste 0 964.4 -- 91
2020-11-10 19:00:00 9.7 0 Calma 5 Norte 0 964 -- 83
2020-11-10 18:00:00 11.7 3 Este 5 Oeste 0 963.6 -- 77
2020-11-10 17:00:00 12.6 4 Oeste 8 Oeste 0 964.1 -- 72
2020-11-10 16:00:00 11.9 3 Sudoeste 12 Noroeste 0 963.9 -- 75
2020-11-10 15:00:00 10.8 4 Sudoeste 11 Oeste 0 964.3 -- 81
2020-11-10 14:00:00 9.8 3 Oeste 8 Oeste 0 964.8 -- 84
2020-11-10 13:00:00 9 4 Oeste 9 Oeste 0 965.6 -- 88
2020-11-10 12:00:00 8.1 4 Noroeste 8 Oeste 0 966.4 -- 94
2020-11-10 11:00:00 7.5 4 Oeste 8 Oeste 0 966.1 -- 95
2020-11-10 10:00:00 7.3 4 Oeste 7 Oeste 0 966 -- 96
2020-11-10 09:00:00 6.9 0 Calma 5 Oeste 0 965.7 -- 96
2020-11-10 08:00:00 6.7 4 Oeste 6 Noroeste 0 965 -- 95
2020-11-10 07:00:00 6.9 3 Sudeste 4 Sudeste 0 964.5 -- 95
2020-11-10 06:00:00 6.4 2 Noroeste 6 Noroeste 0 964.4 -- 97
2020-11-10 05:00:00 5.7 2 Norte 5 Sur 0 964 -- 96
2020-11-10 04:00:00 5.5 0 Calma 3 Este 0 964.2 -- 96
2020-11-10 03:00:00 5.9 0 Calma 4 Oeste 0 963.7 -- 94
2020-11-10 02:00:00 6.9 2 Oeste 4 Oeste 0 963.6 -- 93
2020-11-10 01:00:00 7.6 0 Calma 5 Sudeste 0 963.7 -- 91
2020-11-10 00:00:00 9 3 Sur 5 Sudeste 0 963.4 -- 91
2020-11-09 23:00:00 10.3 0 Calma 4 Sur 0 963.2 -- 87
2020-11-09 22:00:00 11.3 2 Sudeste 5 Oeste 0 963 -- 85
2020-11-09 21:00:00 11.7 2 Este 4 Este 0 962.4 -- 83
2020-11-09 20:00:00 12.5 2 Norte 6 Noroeste 0 962.1 -- 78
2020-11-09 19:00:00 13.5 4 Oeste 17 Oeste 0 961.3 -- 72
2020-11-09 18:00:00 14.8 5 Noroeste 10 Noroeste 0 960.7 -- 67
2020-11-09 17:00:00 15.8 5 Oeste 17 Sudoeste 0 960.1 -- 61
2020-11-09 16:00:00 17.2 8 Sudoeste 18 Sudoeste 0 959.3 -- 56
2020-11-09 15:00:00 16.7 7 Oeste 15 Oeste 0 959.3 -- 61
2020-11-09 14:00:00 15.5 5 Oeste 12 Noroeste 0 959.4 -- 69
2020-11-09 13:00:00 14.6 5 Oeste 10 Noroeste 0 959.5 -- 74
2020-11-09 12:00:00 13.5 4 Noroeste 8 Noroeste 0 959.6 -- 78
2020-11-09 11:00:00 12.6 3 Sur 7 Sur 0 959.3 -- 81
2020-11-09 10:00:00 11.5 5 Sur 10 Sudeste 0 959.1 -- 84
2020-11-09 09:00:00 10 2 Sudoeste 8 Sudeste 0 958.5 -- 93
2020-11-09 08:00:00 9.1 4 Sudeste 7 Sur 0 957.7 -- 96
2020-11-09 07:00:00 9.8 2 Noroeste 9 Sur 0 957.2 -- 92
2020-11-09 06:00:00 10 5 Noroeste 10 Oeste 0 956.8 -- 92
2020-11-09 05:00:00 10.4 6 Sur 13 Sur 0 956.8 -- 89
2020-11-09 04:00:00 10.2 3 Sur 10 Sur 0.6 956.4 -- 91
2020-11-09 03:00:00 10.4 4 Sur 9 Sudeste 0 956.3 -- 89
2020-11-09 02:00:00 10.8 4 Sur 8 Sudeste 0.2 956 -- 89
2020-11-09 01:00:00 11.2 2 Sur 10 Este 0.2 956.4 -- 83
2020-11-09 00:00:00 11 7 Sudeste 14 Sudeste 0 956.1 -- 81
2020-11-08 23:00:00 10.8 0 Calma 6 Noroeste 0 955.9 -- 85
2020-11-08 22:00:00 11.2 2 Este 10 Sur 0 955.5 -- 83
2020-11-08 21:00:00 12 4 Este 10 Oeste 0 955.2 -- 80
2020-11-08 20:00:00 13 2 Oeste 18 Este 0 954.6 -- 74
2020-11-08 19:00:00 14 9 Este 18 Este 0 954.5 -- 71
2020-11-08 18:00:00 15.5 4 Este 10 Nordeste 0 954.1 -- 65
2020-11-08 17:00:00 16.3 2 Este 7 Este 0 954 -- 59
2020-11-08 16:00:00 16.1 3 Este 8 Este 0 954 -- 63
2020-11-08 15:00:00 16.5 6 Noroeste 14 Nordeste 0 953.9 -- 59
2020-11-08 14:00:00 15.2 5 Noroeste 11 Norte 0 954.4 -- 78
2020-11-08 13:00:00 13.2 5 Nordeste 9 Nordeste 0.2 954.9 -- 90
2020-11-08 12:00:00 12.3 4 Este 8 Sur 0 955.2 -- 93
2020-11-08 11:00:00 11.8 6 Oeste 10 Oeste 0 955.3 -- 94
2020-11-08 10:00:00 11 2 Noroeste 22 Noroeste 0 955.4 -- 96
2020-11-08 09:00:00 10.8 0 Calma 8 Sur 0 954.7 -- 94
2020-11-08 08:00:00 10.8 6 Sudeste 12 Sur 0 954.7 -- 95
2020-11-08 07:00:00 10.6 4 Este 13 Sudoeste 0 954.8 -- 95
2020-11-08 06:00:00 10.4 5 Sudeste 9 Sudeste 0 954.9 -- 94
2020-11-08 05:00:00 11 0 Calma 7 Sudoeste 0 955.3 -- 94
2020-11-08 04:00:00 10.9 2 Sudeste 6 Este 0.2 955.6 -- 94
2020-11-08 03:00:00 11 3 Este 5 Este 0 955.9 -- 94
2020-11-08 02:00:00 11.2 2 Norte 5 Nordeste 0 956 -- 93
2020-11-08 01:00:00 11.5 2 Noroeste 5 Oeste 0 956.2 -- 91
2020-11-08 00:00:00 11.6 2 Sudoeste 5 Norte 0 956.2 -- 89
2020-11-07 23:00:00 11.9 3 Sur 9 Sur 0 956.4 -- 86
2020-11-07 22:00:00 11.9 4 Sudeste 10 Sur 0 956.4 -- 88
2020-11-07 21:00:00 12.4 4 Este 8 Este 0 956.4 -- 89
2020-11-07 20:00:00 12.8 3 Oeste 8 Nordeste 0.2 956 -- 84
2020-11-07 19:00:00 13.5 2 Este 7 Este 0.4 955.4 -- 83
2020-11-07 18:00:00 14.7 0 Calma 5 Este 0 954.7 -- 70
2020-11-07 17:00:00 15.6 0 Calma 8 Nordeste 0 954.2 -- 64
2020-11-07 16:00:00 15.9 3 Este 6 Nordeste 0 953.9 -- 59
2020-11-07 15:00:00 16.1 4 Sudoeste 8 Oeste 0 953.8 -- 56
2020-11-07 14:00:00 16.6 2 Noroeste 10 Sudoeste 0 953.4 -- 54
2020-11-07 13:00:00 16.9 6 Sudoeste 13 Sudoeste 0 953.1 -- 53
2020-11-07 12:00:00 15.6 4 Norte 10 Nordeste 0 953.2 -- 64
2020-11-07 11:00:00 14.1 4 Este 9 Nordeste 0 952.4 -- 75
2020-11-07 10:00:00 11.3 0 Calma 6 Este 0 951.9 -- 87
2020-11-07 09:00:00 10.3 3 Sur 6 Oeste 0 950.9 -- 90
2020-11-07 08:00:00 10.6 2 Noroeste 5 Este 0 950 -- 88
2020-11-07 07:00:00 11.3 3 Norte 5 Este 0 949.5 -- 85
2020-11-07 06:00:00 11.5 3 Este 8 Oeste 0 949.1 -- 83
2020-11-07 05:00:00 12.4 3 Este 8 Sudeste 0 948.6 -- 79
2020-11-07 04:00:00 12.9 3 Este 21 Este 0 948.4 -- 75
2020-11-07 03:00:00 13.8 11 Este 21 Este 0 948.4 -- 71
2020-11-07 02:00:00 14.4 3 Noroeste 20 Este 0 948.6 -- 67
2020-11-07 01:00:00 14.3 6 Norte 24 Sudeste 0 948.6 -- 69
2020-11-07 00:00:00 14.6 5 Noroeste 23 Este 0 948.7 -- 67
2020-11-06 23:00:00 15.6 5 Este 28 Sudoeste 0 948.8 -- 61
2020-11-06 22:00:00 15.7 11 Este 30 Sur 0 948.5 -- 66
2020-11-06 21:00:00 16.9 21 Este 42 Este 0 946.9 -- 67
2020-11-06 20:00:00 17 23 Este 47 Este 0 947.1 -- 68
2020-11-06 19:00:00 16.8 19 Este 46 Sudeste 0 947.7 -- 69
2020-11-06 18:00:00 16.4 23 Este 42 Sudeste 0 947.8 -- 70
2020-11-06 17:00:00 16.3 21 Este 50 Sudeste 0 948.5 -- 71
2020-11-06 16:00:00 15.6 22 Sudeste 44 Este 0.4 948.8 -- 74
2020-11-06 15:00:00 15.6 23 Sudeste 48 Sudeste 0 949.8 -- 74
2020-11-06 14:00:00 16.7 22 Sudeste 43 Sudeste 0 950.2 -- 62
2020-11-06 13:00:00 16 20 Este 36 Este 0 950.9 -- 65
2020-11-06 12:00:00 15.2 21 Sudeste 40 Este 0 952.5 -- 68
2020-11-06 11:00:00 13.8 15 Este 41 Sudeste 0 952.3 -0.1 77
2020-11-06 10:00:00 14.6 27 Sudeste 48 Sudeste 0 953 -- 67
2020-11-06 09:00:00 13.8 14 Este 35 Sudeste 0 952.6 -- 70
2020-11-06 08:00:00 13.1 17 Este 34 Este 0 952.4 -- 73
2020-11-06 07:00:00 12.9 15 Este 34 Este 0 952.3 -- 73
2020-11-06 06:00:00 13.1 19 Este 39 Este 0 952.4 -- 75
2020-11-06 05:00:00 13 15 Este 40 Este 0 952.4 -- 78
2020-11-06 04:00:00 13.5 22 Sudeste 39 Sudeste 0 952.8 -- 74
2020-11-06 03:00:00 12.8 16 Sudeste 40 Sudeste 0 953.1 -- 77
2020-11-06 02:00:00 12.9 19 Este 32 Este 0 953.4 -- 76
2020-11-06 01:00:00 13.2 15 Este 40 Sudeste 0 954.1 -- 74
2020-11-06 00:00:00 13.5 25 Este 44 Este 0 954 -- 72
2020-11-05 23:00:00 13.3 21 Sudeste 41 Sudeste 0 954.5 -- 75
2020-11-05 22:00:00 12.8 15 Este 42 Sudeste 0 954.5 -- 79
2020-11-05 21:00:00 13.7 20 Sudeste 44 Sudeste 0 954.7 -- 72
2020-11-05 20:00:00 14.1 21 Sudeste 40 Sudeste 0 955 -- 70
2020-11-05 19:00:00 14.3 19 Este 40 Este 0 955.3 -- 67
2020-11-05 18:00:00 14.4 17 Sudeste 36 Sudeste 0 955.1 -- 65
2020-11-05 17:00:00 14.4 15 Sudeste 39 Sudeste 0 955.4 -- 63
2020-11-05 16:00:00 14.6 19 Sudeste 37 Sudeste 0 955.4 -- 61
2020-11-05 15:00:00 14.4 19 Sudeste 41 Sudeste 0 955.6 -- 62
2020-11-05 14:00:00 14.4 17 Sudeste 32 Sudeste 0 956.4 -- 65
2020-11-05 13:00:00 13.3 12 Sudeste 40 Sudeste 0 957 -- 68
2020-11-05 12:00:00 13.4 21 Sudeste 40 Sudeste 0 958 -- 64
2020-11-05 11:00:00 12.5 19 Sudeste 40 Sudeste 0 958.6 -- 66
2020-11-05 10:00:00 11.8 17 Sudeste 34 Sudeste 0 958.9 -- 67
2020-11-05 09:00:00 10.8 13 Este 32 Este 0 958.5 -- 69
2020-11-05 08:00:00 10.6 11 Este 26 Sudeste 0 958.1 -- 68
2020-11-05 07:00:00 10.8 9 Sudeste 27 Este 0 958.2 -- 67
2020-11-05 06:00:00 11 16 Este 32 Este 0 958.5 -- 66
2020-11-05 05:00:00 10.5 14 Este 27 Este 0 958.1 -- 65
2020-11-05 04:00:00 10.4 7 Sudeste 22 Este 0 958.7 -- 62
2020-11-05 03:00:00 9.9 9 Sudeste 19 Sudeste 0 959.2 -- 61
2020-11-05 02:00:00 8.5 3 Este 16 Nordeste 0 959.2 -- 66
2020-11-05 01:00:00 8.2 9 Sudeste 18 Sudeste 0 959.5 -- 65
2020-11-05 00:00:00 8 5 Este 25 Sudeste 0 959.7 -- 66
2020-11-04 23:00:00 8.1 13 Sudeste 38 Sudeste 0 959.7 -- 65
2020-11-04 22:00:00 9.3 14 Sudeste 31 Este 0 959.1 -- 56
2020-11-04 21:00:00 9.7 16 Este 30 Este 0 958.5 -- 53
2020-11-04 20:00:00 9.8 13 Este 35 Sudeste 0 958.2 -- 54
2020-11-04 19:00:00 10.3 12 Sudeste 28 Este 0 957.7 -- 55
2020-11-04 18:00:00 11.2 16 Este 27 Este 0 957.2 -- 47
2020-11-04 17:00:00 11.9 13 Este 34 Este 0 957 -- 45
2020-11-04 16:00:00 12 10 Este 23 Sudeste 0 957.1 -- 45
2020-11-04 15:00:00 10.7 4 Sudoeste 10 Oeste 0 957.7 -- 62
2020-11-04 14:00:00 10.2 6 Oeste 14 Noroeste 0 958.7 -- 63
2020-11-04 13:00:00 8 6 Oeste 13 Oeste 0 960 -- 73
2020-11-04 12:00:00 6.4 5 Oeste 9 Noroeste 0 961.2 -- 79
2020-11-04 11:00:00 4.2 3 Oeste 9 Sudoeste 0 962 -0.4 84
2020-11-04 10:00:00 3.2 3 Oeste 8 Noroeste 0 962.6 -- 88
2020-11-04 09:00:00 1.7 3 Sudoeste 5 Sudoeste 0 962.6 -- 94
2020-11-04 08:00:00 0.9 2 Este 5 Sudeste 0 962.4 -- 94
2020-11-04 07:00:00 1.6 0 Calma 6 Norte 0 962.9 -- 91
2020-11-04 06:00:00 2.4 2 Este 8 Sudeste 0 963.3 -- 92
2020-11-04 05:00:00 2.7 0 Calma 4 Este 0 963.7 -- 91
2020-11-04 04:00:00 3.6 3 Este 6 Noroeste 0 964.3 -- 86
2020-11-04 03:00:00 5.1 2 Noroeste 5 Norte 0 964.9 -- 85
2020-11-04 02:00:00 5.9 0 Calma 6 Nordeste 0 965.5 -- 81
2020-11-04 01:00:00 5.9 2 Sudeste 7 Sur 0 966.3 -- 80
2020-11-04 00:00:00 6.1 3 Sur 5 Sur 0 966.9 -- 79
2020-11-03 23:00:00 5.3 3 Este 6 Sudeste 0 967.5 -- 83
2020-11-03 22:00:00 5.6 2 Sudeste 8 Este 0 967.9 -- 81
2020-11-03 21:00:00 6.7 4 Nordeste 14 Sudoeste 0 967.8 -- 76
2020-11-03 20:00:00 7.8 4 Oeste 12 Noroeste 0 967.5 -- 71
2020-11-03 19:00:00 9.1 6 Oeste 13 Oeste 0 967.5 -- 61
2020-11-03 18:00:00 10.8 4 Oeste 22 Norte 0 967.5 -- 54
2020-11-03 17:00:00 13 7 Nordeste 20 Nordeste 0 967.4 -- 49
2020-11-03 16:00:00 14.4 5 Norte 15 Norte 0 967.1 -- 47
2020-11-03 15:00:00 14.1 5 Norte 18 Nordeste 0 967.3 -- 50
2020-11-03 14:00:00 13.7 6 Norte 16 Noroeste 0 967.7 -- 51
2020-11-03 13:00:00 13.2 5 Oeste 13 Noroeste 0 968.1 -- 58
2020-11-03 12:00:00 12 5 Oeste 12 Sudoeste 0 968.5 -- 67
2020-11-03 11:00:00 10.7 3 Sudeste 9 Sur 0 968.5 -- 70
2020-11-03 10:00:00 8.4 4 Oeste 8 Oeste 0 968.2 -- 78
2020-11-03 09:00:00 6.4 0 Calma 7 Sudoeste 0 967.7 -- 86
2020-11-03 08:00:00 4.3 2 Sudeste 4 Sudeste 0 967.3 -- 93
2020-11-03 07:00:00 4.3 0 Calma 9 Sudeste 0 966.6 -- 90
2020-11-03 06:00:00 4.6 3 Sudeste 5 Sudeste 0 966.5 -- 90
2020-11-03 05:00:00 5.5 2 Sudeste 5 Este 0 965.9 -- 89
2020-11-03 04:00:00 6.5 2 Este 7 Sudoeste 0 965.9 -- 86
2020-11-03 03:00:00 8.4 3 Oeste 15 Oeste 0 965.6 -- 79
2020-11-03 02:00:00 9.2 3 Oeste 15 Sudoeste 0 965 -- 78
2020-11-03 01:00:00 10 6 Oeste 23 Noroeste 0 964.7 -- 76
2020-11-03 00:00:00 10.6 6 Oeste 18 Oeste 0 964.4 -- 81
2020-11-02 23:00:00 11 6 Oeste 23 Oeste 0 964 -- 82
2020-11-02 22:00:00 12 9 Oeste 20 Sudoeste 0 963.1 -- 89
2020-11-02 21:00:00 12.7 9 Oeste 19 Oeste 0 962.9 -- 88
2020-11-02 20:00:00 13 5 Oeste 14 Sudoeste 0 962.6 -- 92
2020-11-02 19:00:00 12.8 4 Sudoeste 16 Oeste 0.6 961.8 -- 94
2020-11-02 18:00:00 13 10 Oeste 23 Noroeste 0 960.9 -- 88
2020-11-02 17:00:00 14.8 5 Sudoeste 14 Oeste 0.2 960.1 -- 86
2020-11-02 16:00:00 15.1 6 Oeste 19 Noroeste 1 960 -- 93
2020-11-02 15:00:00 16.6 13 Noroeste 30 Noroeste 0.4 959.4 -- 84
2020-11-02 14:00:00 21.1 8 Noroeste 17 Noroeste 0 958.8 -- 62
2020-11-02 13:00:00 20.7 5 Oeste 12 Oeste 0 959.3 -- 61
2020-11-02 12:00:00 19.9 2 Sudoeste 9 Oeste 0 960 -- 65
2020-11-02 11:00:00 19.1 2 Sur 10 Norte 0 960.2 -- 71
2020-11-02 10:00:00 16.6 0 Calma 6 Sur 0 960.2 -- 85
2020-11-02 09:00:00 13.9 4 Sudeste 6 Sur 0 959.9 -- 95
2020-11-02 08:00:00 14.1 2 Sudeste 6 Sudeste 0 959.6 -- 95
2020-11-02 07:00:00 14.1 4 Este 8 Este 0 959.6 -- 94
2020-11-02 06:00:00 14.3 0 Calma 5 Sur 0 959.5 -- 89
2020-11-02 05:00:00 14.4 2 Sudeste 9 Oeste 0 959 -- 88
2020-11-02 04:00:00 14.5 2 Sur 4 Sudeste 0 959.1 -- 88
2020-11-02 03:00:00 14.8 2 Sudoeste 5 Sudeste 0 959 -- 87
2020-11-02 02:00:00 14.9 4 Sur 11 Sur 0 959.4 -- 85
2020-11-02 01:00:00 15 5 Sur 10 Sudeste 0 959.7 -- 85
2020-11-02 00:00:00 14.9 3 Sudeste 11 Sudeste 0 959.9 -- 86
2020-11-01 23:00:00 15 3 Sudeste 8 Sudeste 0 960.4 -- 86
2020-11-01 22:00:00 15.6 2 Sudeste 5 Sudeste 0 960.3 -- 85
2020-11-01 21:00:00 16.2 0 Calma 5 Sur 0 960.2 -- 85
2020-11-01 20:00:00 16.7 0 Calma 3 Noroeste 0 960.4 -- 83
2020-11-01 19:00:00 17.2 0 Calma 5 Noroeste 0 960 -- 81
2020-11-01 18:00:00 18.2 2 Oeste 5 Sudoeste 0 960 -- 74
2020-11-01 17:00:00 18.5 2 Noroeste 4 Noroeste 0 960.1 -- 74
2020-11-01 16:00:00 18.5 2 Oeste 6 Oeste 0 960.3 -- 72
2020-11-01 15:00:00 18.2 2 Noroeste 6 Noroeste 0 960.8 -- 72
2020-11-01 14:00:00 17.3 4 Noroeste 10 Norte 0 961.3 -- 76
2020-11-01 13:00:00 16.4 2 Sur 5 Este 0 961.9 -- 79
2020-11-01 12:00:00 15 2 Oeste 8 Noroeste 0 962.8 -- 83
2020-11-01 11:00:00 14.8 5 Noroeste 9 Noroeste 0 962.7 -- 85
2020-11-01 10:00:00 13.7 4 Sudeste 8 Sudeste 0 962.3 -- 88
2020-11-01 09:00:00 13.4 0 Calma 8 Sur 0 961.8 -- 88
2020-11-01 08:00:00 13.2 3 Sur 5 Sudeste 0 961.2 -- 88
2020-11-01 07:00:00 13.3 4 Noroeste 8 Noroeste 0 961.4 -- 87
2020-11-01 06:00:00 13.7 4 Sur 8 Sur 0 961.4 -- 84
2020-11-01 05:00:00 13.8 2 Sudeste 10 Sur 0 961.6 -- 85
2020-11-01 04:00:00 12.9 5 Sudeste 10 Sudeste 0 961.9 -- 87
2020-11-01 03:00:00 12.9 2 Sur 7 Sur 0 962 -- 87
2020-11-01 02:00:00 13.3 4 Sudeste 12 Sudeste 0 962 -- 85
2020-11-01 01:00:00 13.5 3 Sur 10 Sur 0 962.4 -- 84
2020-11-01 00:00:00 13.8 0 Calma 7 Sur 0 962.5 -- 84
2020-10-31 23:00:00 14.1 0 Calma 8 Sur 0 962.3 -- 85
2020-10-31 22:00:00 13.7 4 Sudeste 8 Sudeste 0 962.5 -- 86
2020-10-31 21:00:00 13.7 4 Sudeste 7 Sudeste 0 962.1 -- 86
2020-10-31 20:00:00 13.9 2 Nordeste 9 Oeste 0 962 -- 84
2020-10-31 19:00:00 15 0 Calma 5 Nordeste 0 961.6 -- 79
2020-10-31 18:00:00 18.1 0 Calma 9 Sudoeste 0 961.6 -- 69
2020-10-31 17:00:00 19.9 4 Oeste 9 Noroeste 0 961.6 -- 60
2020-10-31 16:00:00 19.7 4 Noroeste 9 Noroeste 0 961.3 -- 60
2020-10-31 15:00:00 18.4 2 Sudoeste 12 Nordeste 0 961.7 -- 66
2020-10-31 14:00:00 17.3 4 Norte 16 Sudeste 0 962.4 -- 68
2020-10-31 13:00:00 12.9 4 Oeste 12 Norte 0 963.9 -- 80
2020-10-31 12:00:00 11.3 3 Sur 7 Noroeste 0 963.3 -- 84
2020-10-31 11:00:00 9.8 3 Noroeste 8 Noroeste 0 963.6 -- 91
2020-10-31 10:00:00 9.4 3 Noroeste 15 Norte 0 963.7 -- 91
2020-10-31 09:00:00 7.7 7 Sudeste 13 Sudeste 0 963.3 -- 97
2020-10-31 08:00:00 6.6 4 Este 11 Noroeste 0 963.2 -- 97
2020-10-31 07:00:00 6.8 5 Sudeste 10 Sudeste 0 962.6 -- 98
2020-10-31 06:00:00 6.2 3 Sudeste 10 Sudeste 0 963.5 -- 99
2020-10-31 05:00:00 5.6 2 Oeste 8 Oeste 0 963.1 -- 96
2020-10-31 04:00:00 6.2 0 Calma 7 Sudeste 0 962.4 -- 96
2020-10-31 03:00:00 6.6 3 Noroeste 8 Norte 0 962.7 -- 96
2020-10-31 02:00:00 6.9 3 Sudoeste 8 Sudeste 0 962.8 -- 98
2020-10-31 01:00:00 7 5 Este 10 Oeste 0 962.8 -- 94
2020-10-31 00:00:00 7.6 0 Calma 6 Norte 0 962.4 -- 94
2020-10-30 23:00:00 8.2 0 Calma 6 Oeste 0 963 -- 93
2020-10-30 22:00:00 9.1 3 Noroeste 7 Norte 0 962.9 -- 92
2020-10-30 21:00:00 9.6 0 Calma 3 Sudeste 0 962.7 -- 88
2020-10-30 20:00:00 11.1 0 Calma 5 Sudeste 0 962.3 -- 85
2020-10-30 19:00:00 13.4 0 Calma 4 Norte 0 962 -- 76
2020-10-30 18:00:00 16.9 0 Calma 8 Noroeste 0 961.6 -- 62
2020-10-30 17:00:00 17.8 3 Oeste 6 Sudoeste 0 961.8 -- 58
2020-10-30 16:00:00 16.5 4 Oeste 8 Noroeste 0 962.2 -- 61
2020-10-30 15:00:00 14 3 Noroeste 10 Oeste 0 962.7 -- 69
2020-10-30 14:00:00 11.4 3 Oeste 9 Sudoeste 0 963.4 -- 79
2020-10-30 13:00:00 8.6 3 Norte 9 Oeste 0 964.4 -- 92
2020-10-30 12:00:00 6.9 5 Oeste 8 Oeste 0 965.3 -- 97
2020-10-30 11:00:00 5.9 3 Sudeste 7 Este 0 965.7 -- 100
2020-10-30 10:00:00 5 3 Este 6 Noroeste 0 966 -- 100
2020-10-30 09:00:00 4.9 2 Sudeste 8 Sudeste 0 965.5 -- 100
2020-10-30 08:00:00 4.5 2 Noroeste 6 Sudeste 0 965.1 -- 99
2020-10-30 07:00:00 5 3 Sudeste 5 Sur 0 964.8 -- 99
2020-10-30 06:00:00 4.4 0 Calma 5 Noroeste 0 964.6 -- 99
2020-10-30 05:00:00 3.9 0 Calma 3 Oeste 0 964.4 -- 97
2020-10-30 04:00:00 4.2 0 Calma 3 Nordeste 0 964.5 -- 96
2020-10-30 03:00:00 4.8 0 Calma 2 Este 0 964.5 -- 96
2020-10-30 02:00:00 5.3 0 Calma 3 Norte 0 964.3 -- 95
2020-10-30 01:00:00 5.8 0 Calma 5 Sudeste 0 964.2 -- 95
2020-10-30 00:00:00 6.3 2 Nordeste 3 Este 0 964.4 -- 94
2020-10-29 23:00:00 7.1 0 Calma 5 Sur 0 964.2 -- 93
2020-10-29 22:00:00 8.1 2 Sur 6 Sur 0 963.9 -- 92
2020-10-29 21:00:00 8.8 3 Sudeste 7 Sudeste 0 963.5 -- 89
2020-10-29 20:00:00 10.3 0 Calma 4 Sudeste 0 963.2 -- 84
2020-10-29 19:00:00 12.5 3 Sudeste 5 Sudeste 0 962.5 -- 77
2020-10-29 18:00:00 16.1 0 Calma 5 Nordeste 0 962.1 -- 61
2020-10-29 17:00:00 16.9 3 Oeste 7 Sur 0 962.4 -- 59
2020-10-29 16:00:00 15.7 4 Nordeste 11 Este 0 962.5 -- 62
2020-10-29 15:00:00 14.3 4 Oeste 9 Sudoeste 0 962.9 -- 65
2020-10-29 14:00:00 11.7 4 Sudoeste 11 Oeste 0 963.8 -- 76
2020-10-29 13:00:00 10 4 Norte 11 Sudoeste 0 964.5 -- 82
2020-10-29 12:00:00 7.8 5 Sur 9 Sudoeste 0 965.2 -- 88
2020-10-29 11:00:00 6.6 2 Sudoeste 6 Oeste 0 965.4 -- 92
2020-10-29 10:00:00 5.8 2 Sudoeste 4 Sudoeste 0 965.3 -- 98
2020-10-29 09:00:00 4.8 4 Sudeste 6 Este 0 965.1 -- 99
2020-10-29 08:00:00 4.3 0 Calma 6 Este 0 964.5 -- 98
2020-10-29 07:00:00 4.6 3 Sudeste 5 Sudeste 0 964.3 -- 98
2020-10-29 06:00:00 4.1 0 Calma 5 Sur 0 963.8 -- 96
2020-10-29 05:00:00 4.4 3 Sudeste 5 Noroeste 0 963.9 -- 95
2020-10-29 04:00:00 4.7 3 Sudeste 4 Sudeste 0 963.7 -- 96
2020-10-29 03:00:00 5.3 0 Calma 4 Este 0 963.9 -- 94
2020-10-29 02:00:00 5.9 3 Este 4 Norte 0 963.6 -- 93
2020-10-29 01:00:00 6.5 0 Calma 4 Sudeste 0 963.3 -- 91
2020-10-29 00:00:00 7.9 4 Sur 10 Sudeste 0 963.2 -- 88
2020-10-28 23:00:00 8.9 0 Calma 7 Sudeste 0 963 -- 86
2020-10-28 22:00:00 10.2 4 Sur 8 Sudeste 0 962.7 -- 80
2020-10-28 21:00:00 9.5 0 Calma 5 Sudeste 0 962.2 -- 84
2020-10-28 20:00:00 10.1 2 Sur 5 Sur 0 961.7 -- 81
2020-10-28 19:00:00 11.8 3 Este 7 Sudoeste 0 961.4 -- 74
2020-10-28 18:00:00 14.5 4 Oeste 18 Oeste 0 961.1 -- 60
2020-10-28 17:00:00 16.2 8 Oeste 22 Noroeste 0 960.5 -- 53
2020-10-28 16:00:00 16.3 8 Noroeste 21 Noroeste 0 959.9 -- 54
2020-10-28 15:00:00 15.5 10 Noroeste 18 Noroeste 0 960.3 -- 55
2020-10-28 14:00:00 15.3 8 Oeste 18 Noroeste 0 960.4 -- 60
2020-10-28 13:00:00 14.8 8 Oeste 14 Noroeste 0 959.9 -- 61
2020-10-28 12:00:00 13.4 4 Oeste 13 Sudoeste 0 960.1 -- 75
2020-10-28 11:00:00 12.3 6 Oeste 11 Sudoeste 0 960.1 -- 84
2020-10-28 10:00:00 11.1 3 Sudoeste 10 Oeste 0.2 959.4 -- 90
2020-10-28 09:00:00 10.7 3 Oeste 7 Norte 0 958.4 -- 94
2020-10-28 08:00:00 10.3 4 Este 5 Este 0 957.1 -- 94
2020-10-28 07:00:00 10.7 3 Sudeste 5 Este 0 957 -- 95
2020-10-28 06:00:00 10.9 2 Este 7 Norte 0 956.4 -- 93
2020-10-28 05:00:00 11 3 Nordeste 6 Nordeste 0 955.9 -- 91
2020-10-28 04:00:00 11.8 3 Sudoeste 8 Sudoeste 0 956 -- 89
2020-10-28 03:00:00 12 3 Noroeste 7 Oeste 0 956.3 -- 96
2020-10-28 02:00:00 11.7 0 Calma 10 Noroeste 0.4 955.7 -- 97
2020-10-28 01:00:00 11.7 0 Calma 7 Sur 0 955.1 -- 97
2020-10-28 00:00:00 11.8 3 Sur 6 Sur 0.2 955.3 -- 96
2020-10-27 23:00:00 11.7 0 Calma 5 Sudeste 0.2 955.2 -- 96
2020-10-27 22:00:00 11.8 3 Sudeste 6 Sur 0.2 955.2 -- 95
2020-10-27 21:00:00 11.8 4 Sudeste 7 Sur 0.2 955 -- 94
2020-10-27 20:00:00 12.2 3 Este 6 Oeste 0 954.9 -- 90
2020-10-27 19:00:00 12.3 3 Norte 14 Sudeste 0 954.4 -- 86
2020-10-27 18:00:00 12.5 3 Sudeste 8 Este 0 954.4 -- 88
2020-10-27 17:00:00 12.6 3 Sudeste 7 Este 0 954.5 -- 88
2020-10-27 16:00:00 12.2 4 Este 14 Este 0.6 954.9 -- 89
2020-10-27 15:00:00 12.8 7 Este 18 Este 0 954.8 -- 82
2020-10-27 14:00:00 13.1 7 Este 15 Este 0 954.8 -- 78
2020-10-27 13:00:00 12.7 2 Sudoeste 5 Nordeste 0 955.5 -- 72
2020-10-27 12:00:00 11.8 2 Sur 5 Sudeste 0 956.2 -- 74
2020-10-27 11:00:00 11.2 2 Noroeste 11 Norte 0 956 -- 74
2020-10-27 10:00:00 10.5 3 Noroeste 10 Nordeste 0 955.8 -- 79
2020-10-27 09:00:00 9.6 2 Sudoeste 6 Sudoeste 0 955.9 -- 86
2020-10-27 08:00:00 9.3 4 Sur 6 Sur 0 955.8 -- 84
2020-10-27 07:00:00 9.3 2 Norte 5 Nordeste 0 955.8 -- 82
2020-10-27 06:00:00 9.3 0 Calma 9 Norte 0 956.1 -- 81
2020-10-27 05:00:00 9 3 Este 6 Nordeste 0 955.9 -- 82
2020-10-27 04:00:00 8.9 3 Este 9 Noroeste 0 956.4 -- 83
2020-10-27 03:00:00 9 4 Noroeste 10 Noroeste 0 956.8 -- 82
2020-10-27 02:00:00 9 2 Noroeste 10 Oeste 0 957 -- 81
2020-10-27 01:00:00 8.9 4 Noroeste 13 Noroeste 0 957.4 -- 85
2020-10-27 00:00:00 8.9 4 Noroeste 16 Oeste 0 957.9 -- 85
2020-10-26 23:00:00 8.8 3 Noroeste 12 Noroeste 0 957.8 -- 89
2020-10-26 22:00:00 8.7 3 Norte 11 Noroeste 0.2 957.9 -- 92
2020-10-26 21:00:00 9 2 Noroeste 8 Norte 0 957.7 -- 87
2020-10-26 20:00:00 9 3 Noroeste 10 Oeste 0 957.8 -- 86
2020-10-26 19:00:00 9.1 4 Noroeste 12 Noroeste 0 957.3 -- 84
2020-10-26 18:00:00 9.6 8 Noroeste 18 Oeste 0.2 957.2 -- 82
2020-10-26 17:00:00 10.6 8 Oeste 23 Oeste 0 956.9 -- 75
2020-10-26 16:00:00 11.2 9 Oeste 30 Sudoeste 0 956.8 -- 71
2020-10-26 15:00:00 12.5 13 Noroeste 26 Oeste 0 956.2 -- 58
2020-10-26 14:00:00 11.9 9 Sudoeste 25 Sudoeste 0 957.1 -- 67
2020-10-26 13:00:00 11 12 Oeste 31 Oeste 0 957.3 -- 67
2020-10-26 12:00:00 11.3 12 Oeste 24 Noroeste 0 957.2 -- 66
2020-10-26 11:00:00 9.5 12 Oeste 24 Noroeste 0 957.2 -- 74
2020-10-26 10:00:00 7.7 8 Oeste 21 Oeste 0 957.1 -- 82
2020-10-26 09:00:00 6.5 7 Oeste 18 Oeste 0 956.5 -- 86
2020-10-26 08:00:00 6.2 8 Oeste 15 Noroeste 0 955.6 -- 85
2020-10-26 07:00:00 6.1 5 Noroeste 13 Noroeste 0 955 -- 86
2020-10-26 06:00:00 5.6 7 Noroeste 17 Noroeste 0 954.5 -- 87
2020-10-26 05:00:00 5.3 5 Noroeste 18 Noroeste 0 953.5 -- 85
2020-10-26 04:00:00 5.5 10 Noroeste 20 Oeste 0 953.2 -- 87
2020-10-26 03:00:00 5.8 8 Noroeste 15 Noroeste 0 953 -- 88
2020-10-26 02:00:00 6 8 Noroeste 13 Noroeste 0 952.5 -- 87
2020-10-26 01:00:00 6.2 4 Oeste 14 Oeste 0 952.6 -- 85
2020-10-26 00:00:00 6.5 7 Oeste 20 Oeste 0 952.6 -- 86